Preview of NWS' New Version of Forecast
This preview is not operational and should not be used for support decisions.

Terminal Aerodrome Forecast (TAF)

Issued by National Weather Service (NWS)

                            
000
FTUS42 KMFL 271122
TAFMIA
TAF
KMIA 271122Z 2712/2818 14015G25KT P6SM SHRA SCT015 BKN045
      TEMPO 2712/2715 3SM RA BKN015
     FM271500 16020G40KT P6SM SHRA BKN030 OVC050
     FM280000 15015G25KT P6SM VCSH BKN035 OVC040=